sensor_id;sensor_type;location;lat;lon;timestamp;pressure;altitude;pressure_sealevel;temperature;humidity
50342;BME280;76053;42.682;23.286;2024-02-26T00:01:37;94359.63;;;25.40;60.47
50342;BME280;76053;42.682;23.286;2024-02-26T00:04:37;94359.63;;;25.40;60.72
50342;BME280;76053;42.682;23.286;2024-02-26T00:07:37;94359.16;;;25.41;60.80
50342;BME280;76053;42.682;23.286;2024-02-26T00:10:38;94354.16;;;25.40;60.96
50342;BME280;76053;42.682;23.286;2024-02-26T00:13:38;94358.41;;;25.41;60.84
50342;BME280;76053;42.682;23.286;2024-02-26T00:16:42;94351.41;;;25.40;61.13
50342;BME280;76053;42.682;23.286;2024-02-26T00:19:42;94354.16;;;25.40;61.23
50342;BME280;76053;42.682;23.286;2024-02-26T00:22:42;94358.84;;;25.39;61.12
50342;BME280;76053;42.682;23.286;2024-02-26T00:25:43;94351.41;;;25.40;61.36
50342;BME280;76053;42.682;23.286;2024-02-26T00:28:43;94345.94;;;25.40;61.13
50342;BME280;76053;42.682;23.286;2024-02-26T00:31:44;94338.91;;;25.39;61.26
50342;BME280;76053;42.682;23.286;2024-02-26T00:34:44;94338.91;;;25.39;61.23
50342;BME280;76053;42.682;23.286;2024-02-26T00:37:44;94342.84;;;25.38;61.30
50342;BME280;76053;42.682;23.286;2024-02-26T00:40:45;94328.09;;;25.35;61.68
50342;BME280;76053;42.682;23.286;2024-02-26T00:43:45;94336.72;;;25.34;61.65
50342;BME280;76053;42.682;23.286;2024-02-26T00:46:46;94323.88;;;25.30;61.47
50342;BME280;76053;42.682;23.286;2024-02-26T00:49:46;94323.56;;;25.28;61.43
50342;BME280;76053;42.682;23.286;2024-02-26T00:52:47;94318.97;;;25.25;61.54
50342;BME280;76053;42.682;23.286;2024-02-26T00:55:47;94319.38;;;25.24;61.80
50342;BME280;76053;42.682;23.286;2024-02-26T00:58:48;94319.81;;;25.22;61.72
50342;BME280;76053;42.682;23.286;2024-02-26T01:01:48;94317.19;;;25.19;61.74
50342;BME280;76053;42.682;23.286;2024-02-26T01:04:48;94307.44;;;25.18;61.90
50342;BME280;76053;42.682;23.286;2024-02-26T01:07:49;94310.59;;;25.16;61.81
50342;BME280;76053;42.682;23.286;2024-02-26T01:10:49;94312.13;;;25.17;61.99
50342;BME280;76053;42.682;23.286;2024-02-26T01:13:50;94300.88;;;25.15;62.08
50342;BME280;76053;42.682;23.286;2024-02-26T01:16:50;94306.75;;;25.14;62.25
50342;BME280;76053;42.682;23.286;2024-02-26T01:19:50;94302.91;;;25.11;62.17
50342;BME280;76053;42.682;23.286;2024-02-26T01:22:51;94306.41;;;25.12;62.31
50342;BME280;76053;42.682;23.286;2024-02-26T01:25:51;94311.56;;;25.10;62.27
50342;BME280;76053;42.682;23.286;2024-02-26T01:28:51;94308.84;;;25.10;62.25
50342;BME280;76053;42.682;23.286;2024-02-26T01:31:52;94305.31;;;25.09;62.29
50342;BME280;76053;42.682;23.286;2024-02-26T01:34:52;94299.50;;;25.07;62.39
50342;BME280;76053;42.682;23.286;2024-02-26T01:37:53;94297.19;;;25.06;62.46
50342;BME280;76053;42.682;23.286;2024-02-26T01:40:53;94306.16;;;25.06;62.18
50342;BME280;76053;42.682;23.286;2024-02-26T01:43:53;94299.94;;;25.06;62.57
50342;BME280;76053;42.682;23.286;2024-02-26T01:46:54;94301.16;;;25.05;62.43
50342;BME280;76053;42.682;23.286;2024-02-26T01:49:55;94294.91;;;25.04;62.55
50342;BME280;76053;42.682;23.286;2024-02-26T01:52:57;94292.94;;;25.05;62.35
50342;BME280;76053;42.682;23.286;2024-02-26T01:55:58;94290.63;;;25.03;62.45
50342;BME280;76053;42.682;23.286;2024-02-26T01:58:58;94288.31;;;25.02;62.78
50342;BME280;76053;42.682;23.286;2024-02-26T02:02:00;94295.75;;;25.01;62.75
50342;BME280;76053;42.682;23.286;2024-02-26T02:05:02;94295.75;;;25.01;62.78
50342;BME280;76053;42.682;23.286;2024-02-26T02:08:03;94288.78;;;25.00;62.62
50342;BME280;76053;42.682;23.286;2024-02-26T02:11:04;94290.38;;;24.98;62.80
50342;BME280;76053;42.682;23.286;2024-02-26T02:14:04;94284.56;;;24.96;62.71
50342;BME280;76053;42.682;23.286;2024-02-26T02:17:05;94281.09;;;24.95;62.82
50342;BME280;76053;42.682;23.286;2024-02-26T02:20:09;94283.47;;;24.93;62.99
50342;BME280;76053;42.682;23.286;2024-02-26T02:23:15;94279.19;;;24.92;62.72
50342;BME280;76053;42.682;23.286;2024-02-26T02:26:15;94284.66;;;24.92;62.83
50342;BME280;76053;42.682;23.286;2024-02-26T02:29:16;94292.09;;;24.92;62.71
50342;BME280;76053;42.682;23.286;2024-02-26T02:32:17;94283.13;;;24.91;63.00
50342;BME280;76053;42.682;23.286;2024-02-26T02:35:18;94280.84;;;24.90;63.08
50342;BME280;76053;42.682;23.286;2024-02-26T02:38:18;94277.34;;;24.89;62.95
50342;BME280;76053;42.682;23.286;2024-02-26T02:41:18;94292.19;;;24.88;63.11
50342;BME280;76053;42.682;23.286;2024-02-26T02:44:19;94293.41;;;24.87;63.11
50342;BME280;76053;42.682;23.286;2024-02-26T02:47:19;94287.94;;;24.87;62.92
50342;BME280;76053;42.682;23.286;2024-02-26T02:50:20;94288.69;;;24.88;63.16
50342;BME280;76053;42.682;23.286;2024-02-26T02:53:20;94289.09;;;24.86;63.12
50342;BME280;76053;42.682;23.286;2024-02-26T02:56:20;94298.06;;;24.86;63.11
50342;BME280;76053;42.682;23.286;2024-02-26T02:59:21;94301.25;;;24.85;63.09
50342;BME280;76053;42.682;23.286;2024-02-26T03:02:21;94287.13;;;24.86;63.27
50342;BME280;76053;42.682;23.286;2024-02-26T03:05:21;94294.56;;;24.86;63.28
50342;BME280;76053;42.682;23.286;2024-02-26T03:08:22;94301.59;;;24.87;63.46
50342;BME280;76053;42.682;23.286;2024-02-26T03:11:22;94296.19;;;24.83;63.27
50342;BME280;76053;42.682;23.286;2024-02-26T03:14:23;94300.13;;;24.82;63.02
50342;BME280;76053;42.682;23.286;2024-02-26T03:17:23;94301.75;;;24.80;63.11
50342;BME280;76053;42.682;23.286;2024-02-26T03:20:24;94290.47;;;24.78;63.12
50342;BME280;76053;42.682;23.286;2024-02-26T03:23:24;94286.31;;;24.73;63.11
50342;BME280;76053;42.682;23.286;2024-02-26T03:26:24;94282.03;;;24.72;63.18
50342;BME280;76053;42.682;23.286;2024-02-26T03:29:25;94277.84;;;24.68;63.15
50342;BME280;76053;42.682;23.286;2024-02-26T03:32:25;94274.03;;;24.65;63.15
50342;BME280;76053;42.682;23.286;2024-02-26T03:35:25;94271.34;;;24.62;63.31
50342;BME280;76053;42.682;23.286;2024-02-26T03:38:26;94272.22;;;24.59;63.41
50342;BME280;76053;42.682;23.286;2024-02-26T03:41:26;94274.59;;;24.57;63.58
50342;BME280;76053;42.682;23.286;2024-02-26T03:44:27;94282.91;;;24.53;63.60
50342;BME280;76053;42.682;23.286;2024-02-26T03:47:27;94287.28;;;24.51;63.71
50342;BME280;76053;42.682;23.286;2024-02-26T03:50:27;94277.97;;;24.48;63.76
50342;BME280;76053;42.682;23.286;2024-02-26T03:53:28;94270.63;;;24.45;63.69
50342;BME280;76053;42.682;23.286;2024-02-26T03:56:28;94266.78;;;24.42;63.66
50342;BME280;76053;42.682;23.286;2024-02-26T03:59:28;94264.47;;;24.41;64.00
50342;BME280;76053;42.682;23.286;2024-02-26T04:02:29;94271.56;;;24.38;63.68
50342;BME280;76053;42.682;23.286;2024-02-26T04:05:29;94270.00;;;24.37;63.88
50342;BME280;76053;42.682;23.286;2024-02-26T04:08:30;94262.69;;;24.34;63.75
50342;BME280;76053;42.682;23.286;2024-02-26T04:11:30;94255.69;;;24.33;63.88
50342;BME280;76053;42.682;23.286;2024-02-26T04:14:30;94263.53;;;24.31;63.96
50342;BME280;76053;42.682;23.286;2024-02-26T04:17:31;94268.66;;;24.29;63.97
50342;BME280;76053;42.682;23.286;2024-02-26T04:20:31;94250.72;;;24.28;63.98
50342;BME280;76053;42.682;23.286;2024-02-26T04:23:31;94252.38;;;24.26;63.96
50342;BME280;76053;42.682;23.286;2024-02-26T04:26:32;94248.88;;;24.25;63.95
50342;BME280;76053;42.682;23.286;2024-02-26T04:29:32;94256.69;;;24.23;64.18
50342;BME280;76053;42.682;23.286;2024-02-26T04:32:33;94255.16;;;24.22;64.32
50342;BME280;76053;42.682;23.286;2024-02-26T04:35:33;94249.38;;;24.20;64.15
50342;BME280;76053;42.682;23.286;2024-02-26T04:38:33;94254.06;;;24.20;64.21
50342;BME280;76053;42.682;23.286;2024-02-26T04:41:34;94256.44;;;24.18;64.15
50342;BME280;76053;42.682;23.286;2024-02-26T04:44:34;94252.59;;;24.15;64.18
50342;BME280;76053;42.682;23.286;2024-02-26T04:47:34;94258.81;;;24.16;64.15
50342;BME280;76053;42.682;23.286;2024-02-26T04:50:35;94257.28;;;24.15;64.17
50342;BME280;76053;42.682;23.286;2024-02-26T04:53:35;94255.72;;;24.14;64.27
50342;BME280;76053;42.682;23.286;2024-02-26T04:56:36;94261.19;;;24.14;64.21
50342;BME280;76053;42.682;23.286;2024-02-26T04:59:36;94269.81;;;24.12;64.28
50342;BME280;76053;42.682;23.286;2024-02-26T05:02:36;94269.03;;;24.12;64.29
50342;BME280;76053;42.682;23.286;2024-02-26T05:05:37;94269.47;;;24.10;64.37
50342;BME280;76053;42.682;23.286;2024-02-26T05:08:37;94274.94;;;24.10;64.29
50342;BME280;76053;42.682;23.286;2024-02-26T05:11:38;94283.53;;;24.09;64.31
50342;BME280;76053;42.682;23.286;2024-02-26T05:14:39;94291.75;;;24.09;64.68
50342;BME280;76053;42.682;23.286;2024-02-26T05:17:39;94297.19;;;24.09;64.41
50342;BME280;76053;42.682;23.286;2024-02-26T05:20:39;94295.66;;;24.08;64.28
50342;BME280;76053;42.682;23.286;2024-02-26T05:23:40;94299.56;;;24.07;64.40
50342;BME280;76053;42.682;23.286;2024-02-26T05:26:40;94309.72;;;24.06;64.49
50342;BME280;76053;42.682;23.286;2024-02-26T05:29:41;94305.47;;;24.05;64.51
50342;BME280;76053;42.682;23.286;2024-02-26T05:32:41;94319.13;;;24.05;64.57
50342;BME280;76053;42.682;23.286;2024-02-26T05:35:42;94319.53;;;24.03;64.56
50342;BME280;76053;42.682;23.286;2024-02-26T05:38:42;94324.22;;;24.03;64.52
50342;BME280;76053;42.682;23.286;2024-02-26T05:41:42;94321.50;;;24.03;64.47
50342;BME280;76053;42.682;23.286;2024-02-26T05:44:43;94321.50;;;24.03;64.64
50342;BME280;76053;42.682;23.286;2024-02-26T05:47:44;94322.69;;;24.02;64.59
50342;BME280;76053;42.682;23.286;2024-02-26T05:50:44;94330.09;;;24.01;64.59
50342;BME280;76053;42.682;23.286;2024-02-26T05:53:45;94325.41;;;24.02;64.57
50342;BME280;76053;42.682;23.286;2024-02-26T05:56:45;94316.91;;;24.00;64.64
50342;BME280;76053;42.682;23.286;2024-02-26T05:59:46;94321.59;;;23.99;64.68
50342;BME280;76053;42.682;23.286;2024-02-26T06:02:46;94329.00;;;23.99;64.91
50342;BME280;76053;42.682;23.286;2024-02-26T06:05:47;94332.50;;;23.99;64.73
50342;BME280;76053;42.682;23.286;2024-02-26T06:08:47;94330.97;;;23.98;64.68
50342;BME280;76053;42.682;23.286;2024-02-26T06:11:47;94332.94;;;23.98;64.69
50342;BME280;76053;42.682;23.286;2024-02-26T06:14:48;94340.34;;;23.97;64.73
50342;BME280;76053;42.682;23.286;2024-02-26T06:17:48;94338.06;;;23.96;64.85
50342;BME280;76053;42.682;23.286;2024-02-26T06:20:48;94344.25;;;23.96;64.80
50342;BME280;76053;42.682;23.286;2024-02-26T06:23:49;94342.75;;;23.95;64.90
50342;BME280;76053;42.682;23.286;2024-02-26T06:26:49;94340.00;;;23.95;64.83
50342;BME280;76053;42.682;23.286;2024-02-26T06:29:50;94330.28;;;23.94;64.86
50342;BME280;76053;42.682;23.286;2024-02-26T06:32:50;94336.50;;;23.95;65.04
50342;BME280;76053;42.682;23.286;2024-02-26T06:35:50;94331.06;;;23.95;64.83
50342;BME280;76053;42.682;23.286;2024-02-26T06:38:51;94345.88;;;23.94;64.81
50342;BME280;76053;42.682;23.286;2024-02-26T06:41:51;94351.72;;;23.96;64.85
50342;BME280;76053;42.682;23.286;2024-02-26T06:44:51;94341.97;;;23.95;64.82
50342;BME280;76053;42.682;23.286;2024-02-26T06:47:52;94346.25;;;23.96;64.89
50342;BME280;76053;42.682;23.286;2024-02-26T06:50:52;94344.69;;;23.95;64.89
50342;BME280;76053;42.682;23.286;2024-02-26T06:53:53;94336.50;;;23.95;64.82
50342;BME280;76053;42.682;23.286;2024-02-26T06:56:53;94344.25;;;23.96;64.92
50342;BME280;76053;42.682;23.286;2024-02-26T06:59:53;94343.06;;;23.97;64.80
50342;BME280;76053;42.682;23.286;2024-02-26T07:02:54;94337.19;;;23.99;64.92
50342;BME280;76053;42.682;23.286;2024-02-26T07:05:54;94342.25;;;24.00;65.08
50342;BME280;76053;42.682;23.286;2024-02-26T07:08:55;94347.72;;;24.00;64.87
50342;BME280;76053;42.682;23.286;2024-02-26T07:11:55;94357.00;;;24.03;65.05
50342;BME280;76053;42.682;23.286;2024-02-26T07:14:55;94353.00;;;24.08;65.27
50342;BME280;76053;42.682;23.286;2024-02-26T07:17:56;94353.97;;;24.17;65.19
50342;BME280;76053;42.682;23.286;2024-02-26T07:20:56;94356.56;;;24.24;65.22
50342;BME280;76053;42.682;23.286;2024-02-26T07:23:57;94361.53;;;24.29;65.02
50342;BME280;76053;42.682;23.286;2024-02-26T07:26:57;94366.41;;;24.38;65.04
50342;BME280;76053;42.682;23.286;2024-02-26T07:29:58;94358.06;;;24.45;64.80
50342;BME280;76053;42.682;23.286;2024-02-26T07:32:58;94352.41;;;24.52;64.72
50342;BME280;76053;42.682;23.286;2024-02-26T07:35:58;94355.06;;;24.56;64.56
50342;BME280;76053;42.682;23.286;2024-02-26T07:38:59;94356.09;;;24.62;64.50
50342;BME280;76053;42.682;23.286;2024-02-26T07:41:59;94360.25;;;24.66;64.39
50342;BME280;76053;42.682;23.286;2024-02-26T07:45:00;94354.72;;;24.70;64.30
50342;BME280;76053;42.682;23.286;2024-02-26T07:48:00;94356.94;;;24.75;64.29
50342;BME280;76053;42.682;23.286;2024-02-26T07:51:00;94349.00;;;24.80;64.17
50342;BME280;76053;42.682;23.286;2024-02-26T07:54:01;94355.47;;;24.86;63.97
50342;BME280;76053;42.682;23.286;2024-02-26T07:57:02;94360.91;;;24.90;63.87
50342;BME280;76053;42.682;23.286;2024-02-26T08:00:03;94356.88;;;24.95;63.93
50342;BME280;76053;42.682;23.286;2024-02-26T08:03:03;94348.59;;;24.98;63.89
50342;BME280;76053;42.682;23.286;2024-02-26T08:06:04;94358.22;;;25.03;63.71
50342;BME280;76053;42.682;23.286;2024-02-26T08:09:04;94347.53;;;25.08;63.80
50342;BME280;76053;42.682;23.286;2024-02-26T08:12:05;94347.38;;;25.15;63.46
50342;BME280;76053;42.682;23.286;2024-02-26T08:15:06;94344.84;;;25.21;63.44
50342;BME280;76053;42.682;23.286;2024-02-26T08:18:07;94346.31;;;25.25;63.48
50342;BME280;76053;42.682;23.286;2024-02-26T08:21:07;94348.97;;;25.29;63.35
50342;BME280;76053;42.682;23.286;2024-02-26T08:24:08;94339.78;;;25.36;63.07
50342;BME280;76053;42.682;23.286;2024-02-26T08:27:08;94343.88;;;25.44;62.99
50342;BME280;76053;42.682;23.286;2024-02-26T08:30:09;94349.59;;;25.49;62.75
50342;BME280;76053;42.682;23.286;2024-02-26T08:33:10;94344.38;;;25.55;62.88
50342;BME280;76053;42.682;23.286;2024-02-26T08:36:11;94346.59;;;25.60;62.41
50342;BME280;76053;42.682;23.286;2024-02-26T08:39:11;94332.78;;;25.63;62.52
50342;BME280;76053;42.682;23.286;2024-02-26T08:42:12;94347.16;;;25.67;62.57
50342;BME280;76053;42.682;23.286;2024-02-26T08:45:12;94347.81;;;25.71;62.44
50342;BME280;76053;42.682;23.286;2024-02-26T08:48:13;94339.81;;;25.77;62.43
50342;BME280;76053;42.682;23.286;2024-02-26T08:51:13;94338.22;;;25.80;62.38
50342;BME280;76053;42.682;23.286;2024-02-26T08:54:13;94340.50;;;25.81;62.45
50342;BME280;76053;42.682;23.286;2024-02-26T08:57:14;94341.59;;;25.84;62.16
50342;BME280;76053;42.682;23.286;2024-02-26T09:00:14;94339.41;;;25.91;62.17
50342;BME280;76053;42.682;23.286;2024-02-26T09:03:15;94342.81;;;25.95;62.22
50342;BME280;76053;42.682;23.286;2024-02-26T09:06:15;94332.53;;;25.99;61.95
50342;BME280;76053;42.682;23.286;2024-02-26T09:09:16;94329.69;;;26.03;62.11
50342;BME280;76053;42.682;23.286;2024-02-26T09:12:16;94323.00;;;26.04;61.86
50342;BME280;76053;42.682;23.286;2024-02-26T09:15:16;94327.59;;;26.07;61.58
50342;BME280;76053;42.682;23.286;2024-02-26T09:18:17;94326.75;;;26.10;61.83
50342;BME280;76053;42.682;23.286;2024-02-26T09:21:17;94321.59;;;26.12;61.92
50342;BME280;76053;42.682;23.286;2024-02-26T09:24:17;94330.47;;;26.16;61.98
50342;BME280;76053;42.682;23.286;2024-02-26T09:27:18;94326.09;;;26.19;61.53
50342;BME280;76053;42.682;23.286;2024-02-26T09:30:18;94327.16;;;26.21;61.89
50342;BME280;76053;42.682;23.286;2024-02-26T09:33:19;94319.75;;;26.22;61.66
50342;BME280;76053;42.682;23.286;2024-02-26T09:36:19;94322.38;;;26.25;61.73
50342;BME280;76053;42.682;23.286;2024-02-26T09:39:20;94321.19;;;26.26;61.84
50342;BME280;76053;42.682;23.286;2024-02-26T09:42:20;94318.78;;;26.28;62.05
50342;BME280;76053;42.682;23.286;2024-02-26T09:45:22;94314.06;;;26.29;61.95
50342;BME280;76053;42.682;23.286;2024-02-26T09:48:25;94311.31;;;26.29;61.80
50342;BME280;76053;42.682;23.286;2024-02-26T09:51:25;94297.50;;;26.32;61.44
50342;BME280;76053;42.682;23.286;2024-02-26T09:54:26;94309.25;;;26.33;61.86
50342;BME280;76053;42.682;23.286;2024-02-26T09:57:28;94313.94;;;26.32;61.51
50342;BME280;76053;42.682;23.286;2024-02-26T10:00:30;94296.72;;;26.32;61.52
50342;BME280;76053;42.682;23.286;2024-02-26T10:03:35;94296.97;;;26.25;60.98
50342;BME280;76053;42.682;23.286;2024-02-26T10:06:37;94297.84;;;26.22;61.50
50342;BME280;76053;42.682;23.286;2024-02-26T10:09:38;94297.03;;;26.21;61.23
50342;BME280;76053;42.682;23.286;2024-02-26T10:12:38;94295.94;;;26.19;60.93
50342;BME280;76053;42.682;23.286;2024-02-26T10:15:39;94286.19;;;26.18;61.22
50342;BME280;76053;42.682;23.286;2024-02-26T10:18:52;94279.06;;;26.07;60.82
50342;BME280;76053;42.682;23.286;2024-02-26T10:21:57;94275.78;;;26.12;60.82
50342;BME280;76053;42.682;23.286;2024-02-26T10:24:57;94280.84;;;26.14;60.85
50342;BME280;76053;42.682;23.286;2024-02-26T10:28:01;94281.16;;;26.16;60.87
50342;BME280;76053;42.682;23.286;2024-02-26T10:31:02;94274.34;;;26.21;61.18
50342;BME280;76053;42.682;23.286;2024-02-26T10:34:03;94266.91;;;26.21;61.08
50342;BME280;76053;42.682;23.286;2024-02-26T10:37:05;94264.09;;;26.25;60.91
50342;BME280;76053;42.682;23.286;2024-02-26T10:40:06;94257.06;;;26.24;60.84
50342;BME280;76053;42.682;23.286;2024-02-26T10:43:08;94258.78;;;26.18;60.67
50342;BME280;76053;42.682;23.286;2024-02-26T10:46:09;94255.19;;;26.08;59.42
50342;BME280;76053;42.682;23.286;2024-02-26T10:49:14;94254.75;;;25.97;58.92
50342;BME280;76053;42.682;23.286;2024-02-26T10:52:15;94255.63;;;25.94;58.16
50342;BME280;76053;42.682;23.286;2024-02-26T10:55:16;94243.25;;;25.89;57.37
50342;BME280;76053;42.682;23.286;2024-02-26T10:58:17;94249.16;;;25.88;57.23
50342;BME280;76053;42.682;23.286;2024-02-26T11:01:19;94246.53;;;25.84;56.50
50342;BME280;76053;42.682;23.286;2024-02-26T11:04:21;94242.25;;;25.83;56.14
50342;BME280;76053;42.682;23.286;2024-02-26T11:07:22;94246.63;;;25.81;55.81
50342;BME280;76053;42.682;23.286;2024-02-26T11:10:24;94244.66;;;25.81;55.96
50342;BME280;76053;42.682;23.286;2024-02-26T11:13:28;94248.94;;;25.82;55.22
50342;BME280;76053;42.682;23.286;2024-02-26T11:16:31;94243.56;;;25.79;55.32
50342;BME280;76053;42.682;23.286;2024-02-26T11:19:35;94246.44;;;25.75;54.47
50342;BME280;76053;42.682;23.286;2024-02-26T11:22:36;94238.22;;;25.75;54.52
50342;BME280;76053;42.682;23.286;2024-02-26T11:25:38;94246.84;;;25.74;53.70
50342;BME280;76053;42.682;23.286;2024-02-26T11:28:40;94233.94;;;25.74;53.48
50342;BME280;76053;42.682;23.286;2024-02-26T11:31:40;94233.16;;;25.86;54.38
50342;BME280;76053;42.682;23.286;2024-02-26T11:34:42;94226.50;;;26.00;53.98
50342;BME280;76053;42.682;23.286;2024-02-26T11:37:52;94223.53;;;26.07;54.32
50342;BME280;76053;42.682;23.286;2024-02-26T11:40:53;94217.28;;;26.19;54.17
50342;BME280;76053;42.682;23.286;2024-02-26T11:43:59;94221.75;;;26.26;54.25
50342;BME280;76053;42.682;23.286;2024-02-26T11:47:10;94209.47;;;26.30;54.21
50342;BME280;76053;42.682;23.286;2024-02-26T11:50:35;94206.94;;;26.36;54.30
50342;BME280;76053;42.682;23.286;2024-02-26T11:53:45;94215.72;;;26.43;54.33
50342;BME280;76053;42.682;23.286;2024-02-26T11:56:46;94216.25;;;26.51;54.95
50342;BME280;76053;42.682;23.286;2024-02-26T11:59:47;94212.34;;;26.39;53.05
50342;BME280;76053;42.682;23.286;2024-02-26T12:02:50;94208.63;;;26.33;52.37
50342;BME280;76053;42.682;23.286;2024-02-26T12:05:51;94209.81;;;26.32;52.30
50342;BME280;76053;42.682;23.286;2024-02-26T12:08:52;94216.06;;;26.33;52.01
50342;BME280;76053;42.682;23.286;2024-02-26T12:11:54;94212.78;;;26.25;51.13
50342;BME280;76053;42.682;23.286;2024-02-26T12:15:01;94215.53;;;26.12;50.86
50342;BME280;76053;42.682;23.286;2024-02-26T12:18:03;94217.38;;;26.15;51.17
50342;BME280;76053;42.682;23.286;2024-02-26T12:21:04;94219.78;;;26.13;51.03
50342;BME280;76053;42.682;23.286;2024-02-26T12:24:14;94218.94;;;26.04;50.76
50342;BME280;76053;42.682;23.286;2024-02-26T12:27:15;94222.44;;;26.04;50.65
50342;BME280;76053;42.682;23.286;2024-02-26T12:30:15;94221.97;;;26.06;50.62
50342;BME280;76053;42.682;23.286;2024-02-26T12:33:16;94221.44;;;26.11;50.26
50342;BME280;76053;42.682;23.286;2024-02-26T12:36:16;94226.47;;;26.12;50.39
50342;BME280;76053;42.682;23.286;2024-02-26T12:39:17;94227.91;;;26.17;49.86
50342;BME280;76053;42.682;23.286;2024-02-26T12:42:17;94219.03;;;26.13;49.66
50342;BME280;76053;42.682;23.286;2024-02-26T12:45:18;94222.84;;;26.15;49.50
50342;BME280;76053;42.682;23.286;2024-02-26T12:48:19;94228.31;;;26.15;49.38
50342;BME280;76053;42.682;23.286;2024-02-26T12:51:19;94231.84;;;26.16;49.53
50342;BME280;76053;42.682;23.286;2024-02-26T12:54:20;94223.19;;;26.18;49.43
50342;BME280;76053;42.682;23.286;2024-02-26T12:57:20;94215.72;;;26.18;49.50
50342;BME280;76053;42.682;23.286;2024-02-26T13:00:26;94215.41;;;26.16;48.87
50342;BME280;76053;42.682;23.286;2024-02-26T13:03:27;94216.72;;;26.11;49.41
50342;BME280;76053;42.682;23.286;2024-02-26T13:06:28;94215.84;;;26.14;49.03
50342;BME280;76053;42.682;23.286;2024-02-26T13:09:32;94218.47;;;26.18;48.45
50342;BME280;76053;42.682;23.286;2024-02-26T13:12:33;94211.88;;;26.15;48.81
50342;BME280;76053;42.682;23.286;2024-02-26T13:15:34;94217.81;;;26.14;48.95
50342;BME280;76053;42.682;23.286;2024-02-26T13:18:34;94212.25;;;26.05;48.79
50342;BME280;76053;42.682;23.286;2024-02-26T13:21:35;94214.00;;;25.99;48.79
50342;BME280;76053;42.682;23.286;2024-02-26T13:24:35;94217.28;;;25.94;48.45
50342;BME280;76053;42.682;23.286;2024-02-26T13:27:36;94219.56;;;25.95;48.68
50342;BME280;76053;42.682;23.286;2024-02-26T13:30:36;94218.06;;;25.94;48.94
50342;BME280;76053;42.682;23.286;2024-02-26T13:33:37;94223.41;;;25.98;48.11
50342;BME280;76053;42.682;23.286;2024-02-26T13:36:38;94226.59;;;25.96;48.37
50342;BME280;76053;42.682;23.286;2024-02-26T13:39:38;94229.00;;;25.94;48.11
50342;BME280;76053;42.682;23.286;2024-02-26T13:42:38;94227.03;;;25.95;47.99
50342;BME280;76053;42.682;23.286;2024-02-26T13:45:39;94233.72;;;25.94;47.88
50342;BME280;76053;42.682;23.286;2024-02-26T13:48:40;94228.38;;;25.90;48.28
50342;BME280;76053;42.682;23.286;2024-02-26T13:51:41;94236.56;;;25.90;48.25
50342;BME280;76053;42.682;23.286;2024-02-26T13:54:41;94242.47;;;25.89;47.98
50342;BME280;76053;42.682;23.286;2024-02-26T13:57:41;94228.13;;;25.85;47.99
50342;BME280;76053;42.682;23.286;2024-02-26T14:00:42;94233.84;;;25.90;47.83
50342;BME280;76053;42.682;23.286;2024-02-26T14:03:42;94229.56;;;25.89;47.68
50342;BME280;76053;42.682;23.286;2024-02-26T14:06:43;94232.31;;;25.89;48.04
50342;BME280;76053;42.682;23.286;2024-02-26T14:09:43;94234.69;;;25.87;48.02
50342;BME280;76053;42.682;23.286;2024-02-26T14:12:44;94240.16;;;25.87;47.36
50342;BME280;76053;42.682;23.286;2024-02-26T14:15:44;94231.19;;;25.87;47.34
50342;BME280;76053;42.682;23.286;2024-02-26T14:18:44;94231.97;;;25.87;47.48
50342;BME280;76053;42.682;23.286;2024-02-26T14:21:45;94242.59;;;25.85;47.13
50342;BME280;76053;42.682;23.286;2024-02-26T14:24:45;94247.31;;;25.85;47.45
50342;BME280;76053;42.682;23.286;2024-02-26T14:27:47;94253.22;;;25.83;47.51
50342;BME280;76053;42.682;23.286;2024-02-26T14:30:47;94241.91;;;25.81;46.99
50342;BME280;76053;42.682;23.286;2024-02-26T14:33:48;94248.63;;;25.80;47.04
50342;BME280;76053;42.682;23.286;2024-02-26T14:36:49;94251.03;;;25.78;47.33
50342;BME280;76053;42.682;23.286;2024-02-26T14:39:49;94245.19;;;25.76;47.29
50342;BME280;76053;42.682;23.286;2024-02-26T14:42:49;94259.66;;;25.77;47.21
50342;BME280;76053;42.682;23.286;2024-02-26T14:45:50;94255.72;;;25.78;47.05
50342;BME280;76053;42.682;23.286;2024-02-26T14:48:50;94258.47;;;25.78;46.96
50342;BME280;76053;42.682;23.286;2024-02-26T14:51:50;94255.50;;;25.72;47.11
50342;BME280;76053;42.682;23.286;2024-02-26T14:54:51;94253.94;;;25.71;47.03
50342;BME280;76053;42.682;23.286;2024-02-26T14:57:51;94258.34;;;25.68;46.89
50342;BME280;76053;42.682;23.286;2024-02-26T15:00:52;94266.56;;;25.68;47.17
50342;BME280;76053;42.682;23.286;2024-02-26T15:03:52;94271.69;;;25.66;46.73
50342;BME280;76053;42.682;23.286;2024-02-26T15:06:52;94270.69;;;25.60;47.05
50342;BME280;76053;42.682;23.286;2024-02-26T15:09:53;94268.41;;;25.59;47.00
50342;BME280;76053;42.682;23.286;2024-02-26T15:12:53;94267.22;;;25.60;46.91
50342;BME280;76053;42.682;23.286;2024-02-26T15:15:53;94266.09;;;25.57;46.69
50342;BME280;76053;42.682;23.286;2024-02-26T15:18:54;94272.41;;;25.54;46.74
50342;BME280;76053;42.682;23.286;2024-02-26T15:21:54;94272.84;;;25.53;46.59
50342;BME280;76053;42.682;23.286;2024-02-26T15:24:55;94277.66;;;25.49;46.55
50342;BME280;76053;42.682;23.286;2024-02-26T15:27:55;94276.13;;;25.48;46.46
50342;BME280;76053;42.682;23.286;2024-02-26T15:30:56;94281.69;;;25.44;46.51
50342;BME280;76053;42.682;23.286;2024-02-26T15:33:56;94280.59;;;25.42;46.24
50342;BME280;76053;42.682;23.286;2024-02-26T15:36:56;94284.63;;;25.37;46.43
50342;BME280;76053;42.682;23.286;2024-02-26T15:39:57;94288.47;;;25.40;46.38
50342;BME280;76053;42.682;23.286;2024-02-26T15:42:57;94289.56;;;25.42;46.36
50342;BME280;76053;42.682;23.286;2024-02-26T15:45:57;94289.13;;;25.44;46.41